Terminal Aerodrome Forecast
Issued by NWS

Home | Current Version | Previous Version | Text Only | Print | Product List | Glossary Off
Versions: 1 2 3 4 5 6 7 8 9 10 11 12 13 14 15 16 17

919
FTUS41 KCLE 221735
TAFFDY
TAF
KFDY 221735Z 2218/2318 24008KT P6SM SCT040 BKN200
     FM230800 VRB02KT 4SM BR SCT010
     FM231400 30006KT P6SM SCT040=

USA.gov is the U.S. government's official web portal to all federal, state and local government web resources and services.